Flight Track Log - Related Links

Times and Time Zones

All times are in EDT time to prevent confusion due to time zone crossing. See the FLG4222 flight status page for this flight to view local times or setup timezone preferences in your user account.

Time Position Orientation Groundspeed Altitude Reporting Facility
EDT Latitude Longitude Course Direction KTS MPH feet Rate Location/Type
Wed 10:07:52 AM 42.1947 -83.3514 184° South 159 183 1,300  Level Cleveland Center
Wed 10:08:46 AM 42.1625 -83.3544 184° South 180 207 2,600 2,328 Climbing Cleveland Center
Wed 10:09:48 AM 42.0847 -83.3614 184° South 231 266 5,800 2,903 Climbing Cleveland Center
Wed 10:10:50 AM 42.0453 -83.2936 128° Southeast 269 310 8,600 2,081 Climbing Cleveland Center
Wed 10:11:52 AM 42.1022 -83.2119 47° Northeast 299 344 10,100 1,694 Climbing Cleveland Center
Wed 10:12:54 AM 42.1447 -83.1061 62° Northeast 339 390 12,100 1,935 Climbing Cleveland Center
Wed 10:13:56 AM 42.1858 -82.9889 65° Northeast 348 400 14,100 2,032 Climbing Cleveland Center
Wed 10:14:58 AM 42.2344 -82.8444 66° East 356 410 16,300 1,742 Climbing Cleveland Center
Wed 10:16:00 AM 42.2764 -82.7189 66° East 367 422 17,700 1,161 Climbing Cleveland Center
Wed 10:17:02 AM 42.3208 -82.5894 65° Northeast 377 434 18,700 968 Climbing Cleveland Center
Wed 10:18:04 AM 42.3647 -82.4508 67° East 398 458 19,700 968 Climbing Cleveland Center
Wed 10:19:06 AM 42.3614 -82.2989 92° East 408 470 20,700 1,065 Climbing Cleveland Center
Wed 10:20:08 AM 42.3536 -82.1211 93° East 412 474 21,900 1,065 Climbing Cleveland Center
Wed 10:21:10 AM 42.3472 -81.9636 93° East 414 476 22,900 968 Climbing Cleveland Center
Wed 10:22:12 AM 42.3397 -81.8064 94° East 415 478 23,900 1,016 Climbing Cleveland Center
Wed 10:23:14 AM 42.3328 -81.6494 93° East 414 476 25,000 1,008 Climbing Cleveland Center
Wed 10:24:17 AM 42.3247 -81.4922 94° East 415 478 26,000 768 Climbing Cleveland Center
Wed 10:25:19 AM 42.3178 -81.3344 93° East 416 479 26,600 484 Climbing Cleveland Center
Wed 10:26:21 AM 42.3081 -81.1436 94° East 430 495 27,000 194 Climbing Cleveland Center
Wed 10:27:23 AM 42.2994 -80.9744 94° East 443 510 27,000  Level Cleveland Center
Wed 10:28:25 AM 42.2903 -80.8014 94° East 454 522 27,000  Level Cleveland Center
Wed 10:29:27 AM 42.2806 -80.6275 94° East 459 528 27,000  Level Cleveland Center
Wed 10:30:29 AM 42.2711 -80.4522 94° East 464 534 27,000  Level Cleveland Center
Wed 10:31:31 AM 42.2617 -80.2758 94° East 468 539 27,000  Level Cleveland Center
Wed 10:32:33 AM 42.2517 -80.0989 94° East 469 540 27,000  Level Cleveland Center
Wed 10:33:35 AM 42.2403 -79.9264 95° East 470 541 27,000  Level Cleveland Center
Wed 10:34:37 AM 42.2272 -79.7158 95° East 472 543 27,000  Level Cleveland Center
Wed 10:35:39 AM 42.2156 -79.5386 95° East 475 547 27,000  Level Cleveland Center
Wed 10:36:41 AM 42.2039 -79.3622 95° East 474 545 27,000  Level Cleveland Center
Wed 10:37:44 AM 42.1919 -79.1858 95° East 475 547 27,000  Level Cleveland Center
Wed 10:38:46 AM 42.1906 -79.0081 91° East 476 548 27,000  Level Cleveland Center
Wed 10:39:48 AM 42.1939 -78.8219 89° East 473 544 27,000  Level Cleveland Center
Wed 10:40:50 AM 42.1967 -78.6083 89° East 478 550 27,000 -97 Level Cleveland Center
Wed 10:41:52 AM 42.2006 -78.4306 88° East 478 550 26,800 -484 Descending Cleveland Center
Wed 10:42:54 AM 42.2025 -78.2514 89° East 480 552 26,000 -968 Descending Cleveland Center
Wed 10:43:56 AM 42.2039 -78.0708 89° East 486 559 24,800 -1,500 Descending Cleveland Center
Wed 10:44:58 AM 42.2064 -77.8972 89° East 474 545 22,900 -2,032 Descending Cleveland Center
Wed 10:46:00 AM 42.2081 -77.6911 89° East 467 537 20,600 -2,032 Descending Cleveland Center
Wed 10:47:02 AM 42.2094 -77.5272 89° East 443 510 18,700 -1,790 Descending Cleveland Center
Wed 10:48:04 AM 42.2097 -77.3658 90° East 433 498 16,900 -1,742 Descending Cleveland Center
Wed 10:49:06 AM 42.2100 -77.2106 90° East 419 482 15,100 -919 Descending Cleveland Center
Wed 10:50:08 AM 42.2097 -77.0536 90° East 423 487 15,000 -968 Descending Cleveland Center
Wed 10:51:10 AM 42.2119 -76.8681 89° East 415 478 13,100 -1,742 Descending Cleveland Center
Wed 10:52:12 AM 42.2131 -76.7322 89° East 378 435 11,400 -1,296 Descending Cleveland Center
Wed 10:53:15 AM 42.1858 -76.6194 108° East 329 379 10,400 -960 Descending Cleveland Center
Wed 10:54:17 AM 42.1592 -76.5175 109° East 298 343 9,400 -726 Descending Cleveland Center
Wed 10:55:19 AM 42.1314 -76.4164 110° East 290 334 8,900 -677 Descending Cleveland Center
Wed 10:56:21 AM 42.1008 -76.3161 112° Southeast 291 335 8,000 -968 Descending Cleveland Center
Wed 10:57:23 AM 42.0683 -76.2050 111° Southeast 274 315 6,900 -1,171 Descending Cleveland Center
Wed 10:58:24 AM 42.0775 -76.1269 81° East 245 282 5,600 -1,289 Descending New York Center
Wed 10:59:24 AM 42.0875 -76.0383 81° East 233 268 4,300 -942 Descending New York Center
Wed 11:00:25 AM 42.1136 -75.9678 63° Northeast 211 243 3,700 -639 Descending New York Center
Wed 11:01:26 AM 42.1500 -75.9428 27° Northeast 166 191 3,000 -843 Descending New York Center
Wed 11:02:26 AM 42.1828 -75.9592 340° North 125 144 2,000 -1,000 Descending New York Center

Login

Don't have an account? Register now (free) for customized features, flight alerts, and more!